createdAt,value
2022-11-22T00:02:02.861Z,98053.59
2022-11-22T00:04:31.240Z,98057.75
2022-11-22T00:07:00.466Z,98054.19
2022-11-22T00:09:31.245Z,98047.53
2022-11-22T00:11:59.838Z,98047.34
2022-11-22T00:14:29.036Z,98044.00
2022-11-22T00:16:57.364Z,98041.34
2022-11-22T00:19:26.090Z,98038.00
2022-11-22T00:21:54.572Z,98034.50
2022-11-22T00:24:22.888Z,98035.28
2022-11-22T00:26:52.562Z,98026.91
2022-11-22T00:29:20.924Z,98019.13
2022-11-22T00:31:49.483Z,98011.41
2022-11-22T00:34:17.905Z,98004.53
2022-11-22T00:36:46.268Z,98001.88
2022-11-22T00:39:14.629Z,98000.19
2022-11-22T00:41:42.963Z,98000.03
2022-11-22T00:44:12.753Z,97999.19
2022-11-22T00:46:41.100Z,97995.75
2022-11-22T00:49:09.432Z,97989.84
2022-11-22T00:51:37.798Z,97982.97
2022-11-22T00:54:06.769Z,97986.38
2022-11-22T00:56:35.749Z,97986.44
2022-11-22T00:59:04.222Z,97986.38
2022-11-22T01:01:34.079Z,97984.69
2022-11-22T01:04:02.613Z,97983.78
2022-11-22T01:06:30.937Z,97997.31
2022-11-22T01:08:59.556Z,97997.94
2022-11-22T01:11:28.057Z,97989.50
2022-11-22T01:13:56.484Z,97997.38
2022-11-22T01:16:24.814Z,98006.06
2022-11-22T01:18:54.693Z,98002.91
2022-11-22T01:21:23.082Z,97999.56
2022-11-22T01:23:51.490Z,97994.88
2022-11-22T01:26:19.929Z,97995.44
2022-11-22T01:28:48.258Z,98004.81
2022-11-22T01:31:16.612Z,98015.25
2022-11-22T01:33:45.228Z,98014.34
2022-11-22T01:36:14.949Z,97991.53
2022-11-22T01:38:43.318Z,98007.72
2022-11-22T01:41:11.735Z,98024.78
2022-11-22T01:43:40.165Z,98043.59
2022-11-22T01:46:11.774Z,98029.00
2022-11-22T01:48:50.570Z,98039.38
2022-11-22T01:51:26.641Z,98038.50
2022-11-22T01:53:58.148Z,98039.41
2022-11-22T01:56:29.367Z,98031.69
2022-11-22T01:59:03.197Z,98033.34
2022-11-22T02:01:33.092Z,98035.06
2022-11-22T02:04:04.231Z,98035.22
2022-11-22T02:06:43.552Z,98032.59
2022-11-22T02:09:14.199Z,98041.22
2022-11-22T02:11:50.365Z,98035.94
2022-11-22T02:14:22.470Z,98026.63
2022-11-22T02:16:50.866Z,98042.88
2022-11-22T02:19:39.948Z,98047.03
2022-11-22T02:22:25.718Z,98032.59
2022-11-22T02:25:03.175Z,98027.44
2022-11-22T02:27:32.946Z,98031.59
2022-11-22T02:30:01.414Z,98033.25
2022-11-22T02:32:30.015Z,98039.03
2022-11-22T02:34:58.390Z,98047.53
2022-11-22T02:37:30.947Z,98051.78
2022-11-22T02:40:04.458Z,98037.06
2022-11-22T02:42:36.649Z,98051.63
2022-11-22T02:45:06.064Z,98061.75
2022-11-22T02:47:34.411Z,98066.84
2022-11-22T02:50:02.759Z,98065.03
2022-11-22T02:52:31.105Z,98067.47
2022-11-22T02:54:59.615Z,98059.81
2022-11-22T02:57:27.949Z,98072.63
2022-11-22T02:59:57.705Z,98058.88
2022-11-22T03:02:26.140Z,98059.66
2022-11-22T03:04:54.565Z,98056.94
2022-11-22T03:07:22.928Z,98062.06
2022-11-22T03:09:51.289Z,98051.69
2022-11-22T03:12:19.627Z,98067.88
2022-11-22T03:14:48.024Z,98066.69
2022-11-22T03:17:18.090Z,98072.78
2022-11-22T03:19:46.473Z,98080.34
2022-11-22T03:22:16.382Z,98077.69
2022-11-22T03:24:44.909Z,98077.69
2022-11-22T03:27:13.209Z,98069.06
2022-11-22T03:29:41.584Z,98072.38
2022-11-22T03:32:09.996Z,98069.59
2022-11-22T03:34:39.726Z,98077.34
2022-11-22T03:37:08.106Z,98080.66
2022-11-22T03:39:36.461Z,98090.88
2022-11-22T03:42:04.977Z,98092.38
2022-11-22T03:44:33.360Z,98095.09
2022-11-22T03:47:01.762Z,98095.84
2022-11-22T03:49:30.427Z,98097.44
2022-11-22T03:52:00.293Z,98094.88
2022-11-22T03:54:28.643Z,98098.22
2022-11-22T03:56:57.007Z,98101.63
2022-11-22T03:59:25.450Z,98094.81
2022-11-22T04:01:53.961Z,98109.28
2022-11-22T04:04:22.394Z,98105.06
2022-11-22T04:06:50.779Z,98104.13
2022-11-22T04:09:20.514Z,98098.97
2022-11-22T04:11:48.903Z,98098.88
2022-11-22T04:14:34.889Z,98107.34
2022-11-22T04:17:03.301Z,98114.34
2022-11-22T04:19:31.876Z,98112.56
2022-11-22T04:21:59.463Z,98111.81
2022-11-22T04:24:47.049Z,98110.75
2022-11-22T04:27:15.370Z,98110.63
2022-11-22T04:29:43.717Z,98111.56
2022-11-22T04:32:29.641Z,98099.69
2022-11-22T04:34:58.071Z,98109.00
2022-11-22T04:37:27.561Z,98103.69
2022-11-22T04:39:57.298Z,98104.56
2022-11-22T04:42:43.363Z,98107.97
2022-11-22T04:45:12.391Z,98114.78
2022-11-22T04:47:58.306Z,98113.03
2022-11-22T04:50:46.410Z,98109.56
2022-11-22T04:53:15.168Z,98118.91
2022-11-22T04:55:47.098Z,98118.09
2022-11-22T04:58:15.849Z,98117.19
2022-11-22T05:00:44.472Z,98125.81
2022-11-22T05:03:13.232Z,98116.41
2022-11-22T05:05:43.886Z,98129.22
2022-11-22T05:08:13.569Z,98135.25
2022-11-22T05:10:59.667Z,98136.13
2022-11-22T05:13:31.688Z,98134.41
2022-11-22T05:16:01.591Z,98134.41
2022-11-22T05:18:30.896Z,98134.56
2022-11-22T05:21:00.799Z,98137.06
2022-11-22T05:23:46.584Z,98143.81
2022-11-22T05:26:16.360Z,98140.47
2022-11-22T05:28:44.706Z,98139.72
2022-11-22T05:31:16.449Z,98143.91
2022-11-22T05:33:47.196Z,98151.69
2022-11-22T05:36:15.548Z,98148.22
2022-11-22T05:38:43.866Z,98153.53
2022-11-22T05:41:15.926Z,98156.00
2022-11-22T05:43:44.534Z,98161.28
2022-11-22T05:46:18.322Z,98162.19
2022-11-22T05:48:50.742Z,98163.00
2022-11-22T05:51:22.127Z,98169.06
2022-11-22T05:53:50.481Z,98168.19
2022-11-22T05:56:23.152Z,98175.28
2022-11-22T05:58:52.110Z,98178.88
2022-11-22T06:01:23.166Z,98168.56
2022-11-22T06:03:52.253Z,98190.94
2022-11-22T06:06:21.151Z,98196.25
2022-11-22T06:08:51.157Z,98193.09
2022-11-22T06:11:23.290Z,98188.09
2022-11-22T06:13:54.017Z,98196.66
2022-11-22T06:16:23.034Z,98203.56
2022-11-22T06:18:51.988Z,98203.50
2022-11-22T06:21:23.942Z,98203.59
2022-11-22T06:23:53.947Z,98206.22
2022-11-22T06:26:25.379Z,98213.94
2022-11-22T06:28:55.182Z,98212.38
2022-11-22T06:31:25.850Z,98225.16
2022-11-22T06:33:55.359Z,98229.44
2022-11-22T06:36:26.318Z,98226.81
2022-11-22T06:38:55.009Z,98235.63
2022-11-22T06:41:27.283Z,98235.56
2022-11-22T06:43:57.623Z,98239.13
2022-11-22T06:46:28.404Z,98238.31
2022-11-22T06:48:56.815Z,98240.72
2022-11-22T06:51:27.476Z,98239.03
2022-11-22T06:53:56.563Z,98241.63
2022-11-22T06:56:30.442Z,98254.56
2022-11-22T06:58:59.325Z,98250.31
2022-11-22T07:01:29.945Z,98258.88
2022-11-22T07:04:00.522Z,98261.63
2022-11-22T07:06:31.213Z,98264.13
2022-11-22T07:09:00.394Z,98269.22
2022-11-22T07:11:32.604Z,98271.78
2022-11-22T07:14:07.540Z,98264.88
2022-11-22T07:16:38.002Z,98262.88
2022-11-22T07:19:07.238Z,98270.03
2022-11-22T07:21:37.812Z,98278.34
2022-11-22T07:24:08.056Z,98280.03
2022-11-22T07:26:38.129Z,98281.72
2022-11-22T07:29:06.467Z,98284.84
2022-11-22T07:31:34.906Z,98282.94
2022-11-22T07:34:03.393Z,98289.72
2022-11-22T07:36:32.337Z,98286.31
2022-11-22T07:39:00.950Z,98289.88
2022-11-22T07:41:29.355Z,98296.06
2022-11-22T07:43:59.089Z,98291.72
2022-11-22T07:46:31.631Z,98302.94
2022-11-22T07:49:01.884Z,98318.34
2022-11-22T07:51:30.800Z,98319.09
2022-11-22T07:53:59.375Z,98310.78
2022-11-22T07:56:27.782Z,98314.84
2022-11-22T07:58:57.954Z,98313.88
2022-11-22T08:01:26.315Z,98321.66
2022-11-22T08:03:54.689Z,98326.97
2022-11-22T08:06:23.001Z,98338.03
2022-11-22T08:08:52.233Z,98349.84
2022-11-22T08:11:22.920Z,98347.19
2022-11-22T08:13:51.305Z,98344.53
2022-11-22T08:16:21.059Z,98338.59
2022-11-22T08:18:51.105Z,98350.03
2022-11-22T08:21:20.319Z,98345.59
2022-11-22T08:23:50.105Z,98340.34
2022-11-22T08:26:21.157Z,98335.03
2022-11-22T08:28:49.727Z,98358.06
2022-11-22T08:31:20.824Z,98364.94
2022-11-22T08:33:49.729Z,98364.72
2022-11-22T08:36:18.085Z,98369.13
2022-11-22T08:38:46.818Z,98370.91
2022-11-22T08:41:15.139Z,98377.94
2022-11-22T08:43:43.506Z,98376.97
2022-11-22T08:46:12.264Z,98380.53
2022-11-22T08:48:42.044Z,98372.81
2022-11-22T08:51:13.125Z,98367.66
2022-11-22T08:53:44.364Z,98374.22
2022-11-22T08:56:15.155Z,98379.38
2022-11-22T08:58:44.129Z,98374.97
2022-11-22T09:01:14.933Z,98375.75
2022-11-22T09:03:45.939Z,98361.75
2022-11-22T09:11:53.495Z,98377.03
2022-11-22T09:14:21.900Z,98378.72
2022-11-22T09:16:50.263Z,98363.16
2022-11-22T09:19:19.984Z,98369.91
2022-11-22T09:21:48.319Z,98366.31
2022-11-22T09:24:16.814Z,98365.22
2022-11-22T09:26:45.317Z,98362.63
2022-11-22T09:29:14.305Z,98365.69
2022-11-22T09:31:42.745Z,98379.31
2022-11-22T09:34:11.173Z,98381.03
2022-11-22T09:36:40.859Z,98381.66
2022-11-22T09:39:10.514Z,98383.22
2022-11-22T09:42:05.725Z,98386.38
2022-11-22T09:44:47.943Z,98382.09
2022-11-22T09:47:31.027Z,98376.94
2022-11-22T09:50:10.570Z,98386.97
2022-11-22T09:52:49.144Z,98381.63
2022-11-22T09:55:26.245Z,98384.25
2022-11-22T09:58:07.263Z,98376.19
2022-11-22T10:00:36.873Z,98381.16
2022-11-22T10:03:10.341Z,98379.56
2022-11-22T10:05:50.477Z,98382.47
2022-11-22T10:08:41.157Z,98374.69
2022-11-22T10:11:22.987Z,98368.41
2022-11-22T10:13:56.490Z,98369.34
2022-11-22T10:16:32.419Z,98347.84
2022-11-22T10:19:09.712Z,98353.63
2022-11-22T10:21:38.061Z,98361.19
2022-11-22T10:24:13.470Z,98351.78
2022-11-22T10:26:42.740Z,98360.44
2022-11-22T10:29:25.939Z,98351.19
2022-11-22T10:32:05.192Z,98355.41
2022-11-22T10:34:51.375Z,98359.38
2022-11-22T10:37:32.095Z,98363.03
2022-11-22T10:40:12.312Z,98368.75
2022-11-22T10:43:07.575Z,98372.88
2022-11-22T10:45:42.454Z,98379.84
2022-11-22T10:48:24.775Z,98376.03
2022-11-22T10:51:03.003Z,98379.44
2022-11-22T10:53:44.648Z,98379.25
2022-11-22T10:56:24.241Z,98380.03
2022-11-22T10:59:14.795Z,98376.66
2022-11-22T11:01:51.117Z,98380.25
2022-11-22T11:04:20.567Z,98382.09
2022-11-22T11:07:12.382Z,98375.22
2022-11-22T11:10:10.745Z,98377.88
2022-11-22T11:12:43.309Z,98378.72
2022-11-22T11:15:21.320Z,98378.44
2022-11-22T11:17:55.954Z,98376.66
2022-11-22T11:20:28.889Z,98363.00
2022-11-22T11:25:48.110Z,98366.75
2022-11-22T11:28:22.714Z,98359.56
2022-11-22T11:30:55.518Z,98353.47
2022-11-22T11:33:30.814Z,98363.50
2022-11-22T11:36:06.341Z,98362.09
2022-11-22T11:38:37.838Z,98365.81
2022-11-22T11:41:24.161Z,98368.91
2022-11-22T11:43:55.403Z,98361.41
2022-11-22T11:46:26.184Z,98362.31
2022-11-22T11:48:55.719Z,98357.16
2022-11-22T11:51:27.960Z,98367.22
2022-11-22T11:54:03.449Z,98363.97
2022-11-22T11:56:45.901Z,98359.19
2022-11-22T11:59:19.620Z,98359.41
2022-11-22T12:01:58.622Z,98359.22
2022-11-22T12:04:30.529Z,98356.09
2022-11-22T12:07:04.994Z,98355.28
2022-11-22T12:09:37.725Z,98356.75
2022-11-22T12:12:32.333Z,98350.84
2022-11-22T12:15:16.068Z,98347.94
2022-11-22T12:17:51.563Z,98346.41
2022-11-22T12:20:24.780Z,98334.53
2022-11-22T12:23:07.113Z,98339.47
2022-11-22T12:25:38.791Z,98335.78
2022-11-22T12:28:19.236Z,98326.84
2022-11-22T12:30:55.843Z,98325.06
2022-11-22T12:33:29.334Z,98330.78
2022-11-22T12:35:59.047Z,98327.25
2022-11-22T12:38:33.053Z,98325.72
2022-11-22T12:41:05.221Z,98325.84
2022-11-22T12:43:40.340Z,98329.72
2022-11-22T12:46:18.360Z,98334.69
2022-11-22T12:48:50.650Z,98334.38
2022-11-22T12:51:27.414Z,98329.13
2022-11-22T12:54:05.311Z,98333.88
2022-11-22T12:56:46.668Z,98327.09
2022-11-22T12:59:28.166Z,98326.94
2022-11-22T13:02:10.844Z,98321.75
2022-11-22T13:04:49.934Z,98318.84
2022-11-22T13:07:24.902Z,98321.06
2022-11-22T13:10:00.191Z,98324.97
2022-11-22T13:12:33.160Z,98326.22
2022-11-22T13:15:02.687Z,98324.34
2022-11-22T13:17:38.679Z,98319.06
2022-11-22T13:20:15.387Z,98319.38
2022-11-22T13:22:58.864Z,98311.63
2022-11-22T13:25:58.564Z,98311.38
2022-11-22T13:28:31.211Z,98312.31
2022-11-22T13:31:09.280Z,98311.16
2022-11-22T13:33:43.182Z,98307.25
2022-11-22T13:36:41.291Z,98311.31
2022-11-22T13:39:18.411Z,98309.41
2022-11-22T13:42:01.525Z,98317.50
2022-11-22T13:44:39.692Z,98306.34
2022-11-22T13:47:43.936Z,98302.13
2022-11-22T13:51:04.747Z,98313.50
2022-11-22T13:53:36.969Z,98319.78
2022-11-22T13:56:58.485Z,98317.91
2022-11-22T13:59:26.916Z,98311.28
2022-11-22T14:02:02.429Z,98311.97
2022-11-22T14:04:54.859Z,98309.34
2022-11-22T14:07:37.435Z,98303.44
2022-11-22T14:10:27.399Z,98307.00
2022-11-22T14:13:36.691Z,98308.91
2022-11-22T14:16:19.118Z,98291.84
2022-11-22T14:18:56.219Z,98298.03
2022-11-22T14:22:01.210Z,98293.66
2022-11-22T14:24:56.671Z,98292.75
2022-11-22T14:27:37.854Z,98294.53
2022-11-22T14:30:17.248Z,98304.00
2022-11-22T14:33:02.749Z,98307.31
2022-11-22T14:35:35.828Z,98310.03
2022-11-22T14:38:30.709Z,98306.28
2022-11-22T14:41:44.828Z,98306.38
2022-11-22T14:44:21.286Z,98308.06
2022-11-22T14:46:58.337Z,98315.00
2022-11-22T14:49:42.180Z,98311.22
2022-11-22T14:52:21.709Z,98302.06
2022-11-22T14:54:53.713Z,98320.28
2022-11-22T14:57:27.194Z,98322.16
2022-11-22T15:00:17.921Z,98319.50
2022-11-22T15:03:19.801Z,98326.56
2022-11-22T15:09:14.765Z,98330.91
2022-11-22T15:09:45.169Z,98328.28
2022-11-22T15:12:30.272Z,98319.84
2022-11-22T15:57:28.582Z,98378.78
2022-11-22T15:59:57.870Z,98391.63
2022-11-22T16:02:32.341Z,98383.91
2022-11-22T16:06:05.353Z,98395.88
2022-11-22T16:07:54.242Z,98407.38
2022-11-22T16:10:25.399Z,98403.19
2022-11-22T16:12:54.594Z,98410.06
2022-11-22T16:15:36.448Z,98403.09
2022-11-22T16:18:15.795Z,98408.25
2022-11-22T16:20:59.592Z,98403.25
2022-11-22T16:23:29.649Z,98401.50
2022-11-22T16:26:20.357Z,98405.84
2022-11-22T16:28:51.381Z,98395.53
2022-11-22T16:31:24.414Z,98401.41
2022-11-22T16:33:56.460Z,98405.97
2022-11-22T16:36:37.880Z,98413.59
2022-11-22T16:39:06.402Z,98415.28
2022-11-22T16:41:36.148Z,98413.69
2022-11-22T16:44:12.672Z,98409.28
2022-11-22T16:46:41.428Z,98408.69
2022-11-22T16:49:21.850Z,98413.88
2022-11-22T16:51:51.426Z,98411.84
2022-11-22T16:54:21.674Z,98404.09
2022-11-22T16:56:50.058Z,98415.53
2022-11-22T16:59:18.478Z,98413.88
2022-11-22T17:01:46.857Z,98425.69
2022-11-22T17:04:23.801Z,98430.06
2022-11-22T17:06:52.801Z,98433.31
2022-11-22T17:09:21.566Z,98430.00
2022-11-22T17:11:50.657Z,98437.75
2022-11-22T17:14:20.810Z,98435.44
2022-11-22T17:16:49.316Z,98430.94
2022-11-22T17:22:07.925Z,98443.66
2022-11-22T17:24:36.823Z,98437.81
2022-11-22T17:27:05.620Z,98441.38
2022-11-22T17:29:49.772Z,98445.56
2022-11-22T17:32:19.687Z,98442.91
2022-11-22T17:34:49.479Z,98447.38
2022-11-22T17:37:17.963Z,98451.03
2022-11-22T17:39:46.802Z,98450.81
2022-11-22T17:42:15.401Z,98458.00
2022-11-22T17:44:43.881Z,98457.94
2022-11-22T17:47:12.450Z,98455.44
2022-11-22T17:49:40.920Z,98456.13
2022-11-22T17:52:10.811Z,98458.06
2022-11-22T17:54:39.808Z,98461.38
2022-11-22T17:57:08.422Z,98463.94
2022-11-22T17:59:36.899Z,98469.84
2022-11-22T18:02:05.358Z,98463.94
2022-11-22T18:04:33.967Z,98464.84
2022-11-22T18:07:02.879Z,98463.94
2022-11-22T18:09:34.684Z,98462.09
2022-11-22T18:12:03.291Z,98462.94
2022-11-22T18:14:31.665Z,98467.59
2022-11-22T18:17:00.780Z,98472.59
2022-11-22T18:19:29.349Z,98472.44
2022-11-22T18:21:58.013Z,98476.28
2022-11-22T18:24:26.497Z,98470.38
2022-11-22T18:26:56.309Z,98469.72
2022-11-22T18:29:42.476Z,98461.81
2022-11-22T18:32:11.934Z,98474.53
2022-11-22T18:34:41.547Z,98478.00
2022-11-22T18:37:10.020Z,98476.22
2022-11-22T18:39:40.471Z,98469.28
2022-11-22T18:42:14.437Z,98483.16
2022-11-22T18:44:43.077Z,98479.28
2022-11-22T18:47:11.545Z,98482.75
2022-11-22T18:49:40.073Z,98478.72
2022-11-22T18:52:10.717Z,98494.00
2022-11-22T18:54:41.843Z,98494.16
2022-11-22T18:57:11.860Z,98489.75
2022-11-22T18:59:40.362Z,98486.22
2022-11-22T19:02:08.778Z,98486.44
2022-11-22T19:04:37.206Z,98484.53
2022-11-22T19:07:05.771Z,98484.53
2022-11-22T19:09:34.230Z,98489.56
2022-11-22T19:12:02.659Z,98486.91
2022-11-22T19:14:32.545Z,98493.75
2022-11-22T19:17:01.280Z,98488.00
2022-11-22T19:19:32.170Z,98486.88
2022-11-22T19:22:00.976Z,98482.59
2022-11-22T19:24:30.113Z,98491.41
2022-11-22T19:26:58.933Z,98488.16
2022-11-22T19:29:27.385Z,98489.75
2022-11-22T19:31:57.305Z,98488.00
2022-11-22T19:34:25.746Z,98499.25
2022-11-22T19:36:54.207Z,98493.25
2022-11-22T19:39:22.579Z,98495.84
2022-11-22T19:41:51.074Z,98487.25
2022-11-22T19:44:19.565Z,98495.19
2022-11-22T19:46:47.925Z,98499.41
2022-11-22T19:49:17.708Z,98491.69
2022-11-22T19:51:46.519Z,98489.19
2022-11-22T19:54:15.890Z,98498.75
2022-11-22T19:56:44.457Z,98501.50
2022-11-22T19:59:15.824Z,98498.25
2022-11-22T20:01:44.386Z,98502.50
2022-11-22T20:04:15.397Z,98499.94
2022-11-22T20:06:49.944Z,98499.94
2022-11-22T20:09:18.895Z,98505.34
2022-11-22T20:11:47.410Z,98503.56
2022-11-22T20:14:15.812Z,98504.56
2022-11-22T20:16:44.250Z,98508.09
2022-11-22T20:19:12.768Z,98517.66
2022-11-22T20:21:41.624Z,98514.44
2022-11-22T20:24:13.070Z,98518.72
2022-11-22T20:26:51.268Z,98520.41
2022-11-22T20:29:22.977Z,98523.09
2022-11-22T20:32:12.524Z,98530.72
2022-11-22T20:34:45.338Z,98532.31
2022-11-22T20:37:13.809Z,98529.63
2022-11-22T20:39:43.730Z,98532.44
2022-11-22T20:42:33.461Z,98541.84
2022-11-22T20:45:00.854Z,98543.69
2022-11-22T20:47:29.493Z,98550.56
2022-11-22T20:49:58.255Z,98541.97
2022-11-22T20:52:26.617Z,98554.00
2022-11-22T20:55:04.591Z,98556.66
2022-11-22T20:57:33.630Z,98553.94
2022-11-22T21:00:01.974Z,98556.63
2022-11-22T21:02:34.618Z,98559.91
2022-11-22T21:05:03.042Z,98565.22
2022-11-22T21:07:31.635Z,98563.47
2022-11-22T21:10:01.764Z,98565.03
2022-11-22T21:12:32.653Z,98563.38
2022-11-22T21:15:01.086Z,98575.31
2022-11-22T21:17:45.602Z,98577.94
2022-11-22T21:20:19.239Z,98578.09
2022-11-22T21:22:47.649Z,98578.78
2022-11-22T21:25:17.487Z,98580.31
2022-11-22T21:27:45.903Z,98580.53
2022-11-22T21:30:15.603Z,98580.47
2022-11-22T21:32:44.287Z,98582.97
2022-11-22T21:35:13.391Z,98581.22
2022-11-22T21:37:42.042Z,98580.38
2022-11-22T21:40:12.437Z,98590.94
2022-11-22T21:42:44.566Z,98580.63
2022-11-22T21:45:13.041Z,98576.44
2022-11-22T21:47:41.997Z,98578.09
2022-11-22T21:50:12.498Z,98579.94
2022-11-22T21:52:43.201Z,98577.22
2022-11-22T21:55:12.124Z,98584.22
2022-11-22T21:57:42.185Z,98584.34
2022-11-22T22:00:13.034Z,98580.91
2022-11-22T22:02:41.357Z,98588.63
2022-11-22T22:05:11.467Z,98599.94
2022-11-22T22:07:56.471Z,98595.63
2022-11-22T22:10:25.198Z,98587.19
2022-11-22T22:12:56.305Z,98593.09
2022-11-22T22:15:24.787Z,98595.47
2022-11-22T22:17:54.428Z,98605.50
2022-11-22T22:20:23.398Z,98603.69
2022-11-22T22:22:52.309Z,98605.59
2022-11-22T22:25:20.705Z,98605.44
2022-11-22T22:27:49.266Z,98600.81
2022-11-22T22:30:19.742Z,98610.34
2022-11-22T22:32:48.187Z,98606.66
2022-11-22T22:35:16.837Z,98607.56
2022-11-22T22:37:45.211Z,98611.72
2022-11-22T22:40:14.045Z,98611.03
2022-11-22T22:42:42.446Z,98608.63
2022-11-22T22:45:12.374Z,98613.78
2022-11-22T22:47:42.165Z,98625.91
2022-11-22T22:50:11.590Z,98618.09
2022-11-22T22:52:40.908Z,98619.63
2022-11-22T22:55:10.582Z,98619.63
2022-11-22T22:57:39.059Z,98625.53
2022-11-22T23:00:08.986Z,98626.38
2022-11-22T23:02:39.435Z,98622.81
2022-11-22T23:05:09.847Z,98612.56
2022-11-22T23:07:43.688Z,98623.63
2022-11-22T23:10:14.763Z,98624.47
2022-11-22T23:12:50.552Z,98630.38
2022-11-22T23:15:38.093Z,98631.22
2022-11-22T23:18:09.422Z,98633.88
2022-11-22T23:20:39.659Z,98630.38
2022-11-22T23:23:08.055Z,98624.28
2022-11-22T23:25:36.399Z,98633.03
2022-11-22T23:28:05.215Z,98632.88
2022-11-22T23:30:33.728Z,98626.88
2022-11-22T23:33:02.107Z,98629.53
2022-11-22T23:35:30.578Z,98632.06
2022-11-22T23:38:00.327Z,98636.38
2022-11-22T23:40:28.928Z,98634.47
2022-11-22T23:42:58.940Z,98637.22
2022-11-22T23:45:27.388Z,98641.47
2022-11-22T23:47:55.750Z,98641.56
2022-11-22T23:50:24.107Z,98641.63
2022-11-22T23:52:56.973Z,98632.94
2022-11-22T23:55:26.821Z,98637.19
2022-11-22T23:57:55.290Z,98634.56
